FALRR weather

Falwell Railroad Field
Newport, Arkansas, United States

Public forecast

Using degrees Fahrenheit for public forecast. Weather courtesy of forecast.io.

Closest aviation weather report (METAR) to Falwell Railroad Field

Closest report is Newport Regional Airport, 10.5 nm (19.4 km) ENE. Retrieved UTC (0 seconds ago):

Closest aviation forecast (TAF) to Falwell Railroad Field

Closest forecast is Jonesboro Municipal Airport, 38.8 nm (71.8 km) ENE. Retrieved 2020/01/27 12:30 UTC (5 hours ago):

TAF KJBR 271128Z 2712/2812 30003KT 5SM BR SCT003 TEMPO 2712/2714 1/4SM FG OVC003 FM271400 VRB03KT P6SM SCT060 FM271800 VRB03KT P6SM FEW250 FM280600 VRB04KT P6SM SCT090